Meishomaru — JD3044 — position and weather

sailwx.info

Track history (hours):
 
Tides and Currents Weather Stations Pressure Air Temp Water Temp Dewpoint Dewpoint Depression Visibility Wind Speed Wind Dir Waves Ship Positions

Meishomaru

Last reported at 2017-Aug-20 08:26 UTC. Time now 2017-Aug-21 02:46 UTC.
Position N 34°03' E 135°01'.

Length 68 m; draft 2.6 m.

Type: Tanker. MMSI: 431001216.

Date/timePositionNaut miles runAvg speedWind from/ knotsBaromVisibWave heightAir tempDewpointWater temp
2017-Aug-20 08:26N 34°03' E 135°01'511.1
2017-Aug-20 08:00N 34°08' E 134°60'611.6
2017-Aug-20 07:28N 34°14' E 134°59'1410.1
2017-Aug-20 06:04N 34°26' E 135°08'112.7
2017-Aug-20 06:00N 34°26' E 135°09'712.2
2017-Aug-20 05:28N 34°30' E 135°16'612.0
2017-Aug-20 04:59N 34°33' E 135°22'3 0.5
2017-Aug-19 23:28N 34°32' E 135°25'1 2.5
2017-Aug-19 23:00N 34°33' E 135°24'2 4.2
2017-Aug-19 22:26N 34°32' E 135°22'0 0.0
2017-Aug-19 22:00N 34°32' E 135°22'0 0.0
2017-Aug-19 17:00N 34°32' E 135°22'0 0.0
2017-Aug-19 16:30N 34°32' E 135°22'0 0.0
2017-Aug-19 14:00N 34°32' E 135°22'0 0.0
2017-Aug-19 13:30N 34°32' E 135°22'0 0.0
2017-Aug-19 13:00N 34°32' E 135°22'0 0.0
2017-Aug-19 12:30N 34°32' E 135°22'0 0.0
2017-Aug-19 11:53N 34°32' E 135°22'3 8.6
2017-Aug-19 11:30N 34°31' E 135°18'612.7
2017-Aug-19 11:00N 34°27' E 135°12'712.7
2017-Aug-19 10:29N 34°23' E 135°06'612.6
2017-Aug-19 10:00N 34°19' E 135°00'713.0
2017-Aug-19 09:27N 34°12' E 135°00'207 9.3
2017-Aug-18 11:17N 34°48' E 139°07'1611.3
2017-Aug-18 09:51N 34°59' E 139°22'411.6
2017-Aug-18 09:28N 35°01' E 139°27'511.7
2017-Aug-18 09:01N 35°04' E 139°33'611.7
2017-Aug-18 08:30N 35°06' E 139°39'611.5
2017-Aug-18 08:00N 35°10' E 139°44'611.4
2017-Aug-18 07:31N 35°16' E 139°46'612.1
2017-Aug-18 07:00N 35°21' E 139°43'510.9
2017-Aug-18 06:31N 35°26' E 139°46'611.7
2017-Aug-18 06:01N 35°30' E 139°52'611.6
2017-Aug-18 05:30N 35°31' E 139°58'3 0.4
2017-Aug-17 20:53N 35°33' E 139°55'0 0.0
2017-Aug-17 20:20N 35°33' E 139°55'0 0.0
2017-Aug-17 17:08N 35°33' E 139°55'0 0.3
2017-Aug-17 16:59N 35°33' E 139°55'2 0.5
2017-Aug-17 13:30N 35°31' E 139°54'611.9
2017-Aug-17 13:00N 35°27' E 139°49'611.6
2017-Aug-17 12:30N 35°22' E 139°45'510.6
2017-Aug-17 12:00N 35°17' E 139°46'611.1
2017-Aug-17 11:30N 35°11' E 139°47'510.8
2017-Aug-17 11:00N 35°06' E 139°45'2 4.3
2017-Aug-17 10:30N 35°08' E 139°45'5 9.2
2017-Aug-17 10:00N 35°13' E 139°46'612.5
2017-Aug-17 09:30N 35°19' E 139°44'612.1
2017-Aug-17 09:00N 35°24' E 139°43'510.2
2017-Aug-17 08:30N 35°30' E 139°43'2 3.5
2017-Aug-17 07:53N 35°31' E 139°45'0 0.0
2017-Aug-17 07:11N 35°31' E 139°45'0 0.0
2017-Aug-17 06:59N 35°31' E 139°45'0 0.0
2017-Aug-17 06:26N 35°31' E 139°45'0 0.0
2017-Aug-17 05:56N 35°31' E 139°45'0 0.0
2017-Aug-17 05:23N 35°31' E 139°45'0 0.0
2017-Aug-17 04:41N 35°31' E 139°45'0 0.0
2017-Aug-17 04:26N 35°31' E 139°45'0 0.0
2017-Aug-17 03:56N 35°31' E 139°45'0 0.0
2017-Aug-17 03:29N 35°31' E 139°45'0 0.0
2017-Aug-17 02:47N 35°31' E 139°45'0 0.0
2017-Aug-17 02:26N 35°31' E 139°45'0 0.0
2017-Aug-17 01:59N 35°31' E 139°45'0 0.0
2017-Aug-17 01:29N 35°31' E 139°45'1 1.6
2017-Aug-17 01:01N 35°30' E 139°45'3 6.4
2017-Aug-17 00:30N 35°29' E 139°49'0 0.0
2017-Aug-16 23:59N 35°29' E 139°49'0 0.0
2017-Aug-16 23:26N 35°29' E 139°49'0 0.0
2017-Aug-16 22:59N 35°29' E 139°49'0 0.0
2017-Aug-16 22:29N 35°29' E 139°49'0 0.0
2017-Aug-16 21:59N 35°29' E 139°49'0 0.0
2017-Aug-16 21:29N 35°29' E 139°49'0 0.0
2017-Aug-16 20:59N 35°29' E 139°49'0 0.0
2017-Aug-16 20:29N 35°29' E 139°49'0 0.0
2017-Aug-16 19:59N 35°29' E 139°49'0 0.1
2017-Aug-16 19:30N 35°29' E 139°49'5 9.4
2017-Aug-16 19:00N 35°25' E 139°47'510.8
2017-Aug-16 18:30N 35°20' E 139°44'5 9.9
2017-Aug-16 18:00N 35°15' E 139°47'5 9.7
2017-Aug-16 17:30N 35°10' E 139°47'5 9.9
2017-Aug-16 17:00N 35°06' E 139°45'510.6
2017-Aug-16 16:30N 35°02' E 139°40'611.0
2017-Aug-16 15:58N 34°59' E 139°34'232 9.4
2017-Aug-15 15:18N 34°04' E 134°60'412.2
2017-Aug-15 15:00N 34°08' E 134°59'812.9
2017-Aug-15 14:23N 34°15' E 134°59'1111.1
2017-Aug-15 13:22N 34°25' E 135°06'512.7
2017-Aug-15 13:00N 34°27' E 135°11'612.3
2017-Aug-15 12:30N 34°30' E 135°18'610.6
2017-Aug-15 11:59N 34°32' E 135°24'1 0.1
2017-Aug-15 06:07N 34°32' E 135°25'0 0.1
2017-Aug-15 05:59N 34°32' E 135°25'2 3.3
2017-Aug-15 05:30N 34°33' E 135°23'3 1.6
2017-Aug-15 03:40N 34°32' E 135°20'0 0.0
2017-Aug-15 03:28N 34°32' E 135°20'0 0.0
2017-Aug-15 02:58N 34°32' E 135°20'0 0.0
2017-Aug-15 02:28N 34°32' E 135°20'0 0.0
2017-Aug-15 00:22N 34°32' E 135°20'0 0.0
2017-Aug-14 23:52N 34°32' E 135°20'0 0.0
2017-Aug-14 23:22N 34°32' E 135°20'0 0.0
2017-Aug-14 22:22N 34°32' E 135°20'0 0.0
2017-Aug-14 21:58N 34°32' E 135°20'0 0.0
2017-Aug-14 21:28N 34°32' E 135°20'0 0.0
2017-Aug-14 20:58N 34°32' E 135°20'0 0.0
2017-Aug-14 20:28N 34°32' E 135°20'0 0.0
2017-Aug-14 19:58N 34°32' E 135°20'0 0.0
2017-Aug-14 19:16N 34°32' E 135°20'2 7.5
2017-Aug-14 19:00N 34°33' E 135°17'611.3
2017-Aug-14 18:30N 34°34' E 135°11'612.1
2017-Aug-14 18:00N 34°35' E 135°04'  
2017-Aug-12 10:02N 34°50' E 139°09'013.8
2017-Aug-12 10:00N 34°50' E 139°09'1612.2
2017-Aug-12 08:40N 35°00' E 139°25'412.0
2017-Aug-12 08:19N 35°02' E 139°29'412.3
2017-Aug-12 08:00N 35°04' E 139°34'612.9
2017-Aug-12 07:30N 35°07' E 139°40'612.3
2017-Aug-12 07:00N 35°12' E 139°45'511.1
2017-Aug-12 06:30N 35°17' E 139°45'611.9
2017-Aug-12 06:00N 35°22' E 139°42'612.1
2017-Aug-12 05:30N 35°27' E 139°47'712.6
2017-Aug-12 04:59N 35°30' E 139°54'3 0.4
2017-Aug-11 22:29N 35°33' E 139°55'0 0.3
2017-Aug-11 21:52N 35°33' E 139°55'0 0.0
2017-Aug-11 21:25N 35°33' E 139°55'0 0.0
2017-Aug-11 20:58N 35°33' E 139°55'0 0.0
2017-Aug-11 20:25N 35°33' E 139°55'0 0.0
2017-Aug-11 19:55N 35°33' E 139°55'0 0.0
2017-Aug-11 19:28N 35°33' E 139°55'0 0.0
2017-Aug-11 18:40N 35°33' E 139°55'0 0.0
2017-Aug-11 18:22N 35°33' E 139°55'0 0.0
2017-Aug-11 17:58N 35°33' E 139°55'0 0.0
2017-Aug-11 17:28N 35°33' E 139°55'0 0.0
2017-Aug-11 16:58N 35°33' E 139°55'0 0.1
2017-Aug-11 16:25N 35°33' E 139°55'0 0.1
2017-Aug-11 15:58N 35°33' E 139°55'0 0.0
2017-Aug-11 15:28N 35°33' E 139°55'0 0.0
2017-Aug-11 05:11N 35°33' E 139°55'0 2.4
2017-Aug-11 05:00N 35°33' E 139°56'6 1.1
2017-Aug-10 23:36N 35°30' E 140°02'4 5.7
2017-Aug-10 22:57N 35°30' E 139°57'510.7
2017-Aug-10 22:31N 35°28' E 139°52'510.2
2017-Aug-10 22:00N 35°25' E 139°47'510.1
2017-Aug-10 21:30N 35°20' E 139°45'5 9.7
2017-Aug-10 21:01N 35°16' E 139°47'510.6
2017-Aug-10 20:30N 35°11' E 139°47'612.2
2017-Aug-10 20:00N 35°05' E 139°44'612.7
2017-Aug-10 19:30N 35°02' E 139°38'  
Track history (hours):
 
Tides and Currents Weather Stations Pressure Air Temp Water Temp Dewpoint Dewpoint Depression Visibility Wind Speed Wind Dir Waves Ship Positions

Meishomaru

Last reported at 2017-Aug-20 08:26 UTC. Time now 2017-Aug-21 02:46 UTC.
Position N 34°03' E 135°01'.

Length 68 m; draft 2.6 m.

Type: Tanker. MMSI: 431001216.

Date/timePositionNaut miles runAvg speedWind from/ knotsBaromVisibWave heightAir tempDewpointWater temp
2017-Aug-20 08:26N 34°03' E 135°01'511.1
2017-Aug-20 08:00N 34°08' E 134°60'611.6
2017-Aug-20 07:28N 34°14' E 134°59'1410.1
2017-Aug-20 06:04N 34°26' E 135°08'112.7
2017-Aug-20 06:00N 34°26' E 135°09'712.2
2017-Aug-20 05:28N 34°30' E 135°16'612.0
2017-Aug-20 04:59N 34°33' E 135°22'3 0.5
2017-Aug-19 23:28N 34°32' E 135°25'1 2.5
2017-Aug-19 23:00N 34°33' E 135°24'2 4.2
2017-Aug-19 22:26N 34°32' E 135°22'0 0.0
2017-Aug-19 22:00N 34°32' E 135°22'0 0.0
2017-Aug-19 17:00N 34°32' E 135°22'0 0.0
2017-Aug-19 16:30N 34°32' E 135°22'0 0.0
2017-Aug-19 14:00N 34°32' E 135°22'0 0.0
2017-Aug-19 13:30N 34°32' E 135°22'0 0.0
2017-Aug-19 13:00N 34°32' E 135°22'0 0.0
2017-Aug-19 12:30N 34°32' E 135°22'0 0.0
2017-Aug-19 11:53N 34°32' E 135°22'3 8.6
2017-Aug-19 11:30N 34°31' E 135°18'612.7
2017-Aug-19 11:00N 34°27' E 135°12'712.7
2017-Aug-19 10:29N 34°23' E 135°06'612.6
2017-Aug-19 10:00N 34°19' E 135°00'713.0
2017-Aug-19 09:27N 34°12' E 135°00'207 9.3
2017-Aug-18 11:17N 34°48' E 139°07'1611.3
2017-Aug-18 09:51N 34°59' E 139°22'411.6
2017-Aug-18 09:28N 35°01' E 139°27'511.7
2017-Aug-18 09:01N 35°04' E 139°33'611.7
2017-Aug-18 08:30N 35°06' E 139°39'611.5
2017-Aug-18 08:00N 35°10' E 139°44'611.4
2017-Aug-18 07:31N 35°16' E 139°46'612.1
2017-Aug-18 07:00N 35°21' E 139°43'510.9
2017-Aug-18 06:31N 35°26' E 139°46'611.7
2017-Aug-18 06:01N 35°30' E 139°52'611.6
2017-Aug-18 05:30N 35°31' E 139°58'3 0.4
2017-Aug-17 20:53N 35°33' E 139°55'0 0.0
2017-Aug-17 20:20N 35°33' E 139°55'0 0.0
2017-Aug-17 17:08N 35°33' E 139°55'0 0.3
2017-Aug-17 16:59N 35°33' E 139°55'2 0.5
2017-Aug-17 13:30N 35°31' E 139°54'611.9
2017-Aug-17 13:00N 35°27' E 139°49'611.6
2017-Aug-17 12:30N 35°22' E 139°45'510.6
2017-Aug-17 12:00N 35°17' E 139°46'611.1
2017-Aug-17 11:30N 35°11' E 139°47'510.8
2017-Aug-17 11:00N 35°06' E 139°45'2 4.3
2017-Aug-17 10:30N 35°08' E 139°45'5 9.2
2017-Aug-17 10:00N 35°13' E 139°46'612.5
2017-Aug-17 09:30N 35°19' E 139°44'612.1
2017-Aug-17 09:00N 35°24' E 139°43'510.2
2017-Aug-17 08:30N 35°30' E 139°43'2 3.5
2017-Aug-17 07:53N 35°31' E 139°45'0 0.0
2017-Aug-17 07:11N 35°31' E 139°45'0 0.0
2017-Aug-17 06:59N 35°31' E 139°45'0 0.0
2017-Aug-17 06:26N 35°31' E 139°45'0 0.0
2017-Aug-17 05:56N 35°31' E 139°45'0 0.0
2017-Aug-17 05:23N 35°31' E 139°45'0 0.0
2017-Aug-17 04:41N 35°31' E 139°45'0 0.0
2017-Aug-17 04:26N 35°31' E 139°45'0 0.0
2017-Aug-17 03:56N 35°31' E 139°45'0 0.0
2017-Aug-17 03:29N 35°31' E 139°45'0 0.0
2017-Aug-17 02:47N 35°31' E 139°45'0 0.0
2017-Aug-17 02:26N 35°31' E 139°45'0 0.0
2017-Aug-17 01:59N 35°31' E 139°45'0 0.0
2017-Aug-17 01:29N 35°31' E 139°45'1 1.6
2017-Aug-17 01:01N 35°30' E 139°45'3 6.4
2017-Aug-17 00:30N 35°29' E 139°49'0 0.0
2017-Aug-16 23:59N 35°29' E 139°49'0 0.0
2017-Aug-16 23:26N 35°29' E 139°49'0 0.0
2017-Aug-16 22:59N 35°29' E 139°49'0 0.0
2017-Aug-16 22:29N 35°29' E 139°49'0 0.0
2017-Aug-16 21:59N 35°29' E 139°49'0 0.0
2017-Aug-16 21:29N 35°29' E 139°49'0 0.0
2017-Aug-16 20:59N 35°29' E 139°49'0 0.0
2017-Aug-16 20:29N 35°29' E 139°49'0 0.0
2017-Aug-16 19:59N 35°29' E 139°49'0 0.1
2017-Aug-16 19:30N 35°29' E 139°49'5 9.4
2017-Aug-16 19:00N 35°25' E 139°47'510.8
2017-Aug-16 18:30N 35°20' E 139°44'5 9.9
2017-Aug-16 18:00N 35°15' E 139°47'5 9.7
2017-Aug-16 17:30N 35°10' E 139°47'5 9.9
2017-Aug-16 17:00N 35°06' E 139°45'510.6
2017-Aug-16 16:30N 35°02' E 139°40'611.0
2017-Aug-16 15:58N 34°59' E 139°34'232 9.4
2017-Aug-15 15:18N 34°04' E 134°60'412.2
2017-Aug-15 15:00N 34°08' E 134°59'812.9
2017-Aug-15 14:23N 34°15' E 134°59'1111.1
2017-Aug-15 13:22N 34°25' E 135°06'512.7
2017-Aug-15 13:00N 34°27' E 135°11'612.3
2017-Aug-15 12:30N 34°30' E 135°18'610.6
2017-Aug-15 11:59N 34°32' E 135°24'1 0.1
2017-Aug-15 06:07N 34°32' E 135°25'0 0.1
2017-Aug-15 05:59N 34°32' E 135°25'2 3.3
2017-Aug-15 05:30N 34°33' E 135°23'3 1.6
2017-Aug-15 03:40N 34°32' E 135°20'0 0.0
2017-Aug-15 03:28N 34°32' E 135°20'0 0.0
2017-Aug-15 02:58N 34°32' E 135°20'0 0.0
2017-Aug-15 02:28N 34°32' E 135°20'0 0.0
2017-Aug-15 00:22N 34°32' E 135°20'0 0.0
2017-Aug-14 23:52N 34°32' E 135°20'0 0.0
2017-Aug-14 23:22N 34°32' E 135°20'0 0.0
2017-Aug-14 22:22N 34°32' E 135°20'0 0.0
2017-Aug-14 21:58N 34°32' E 135°20'0 0.0
2017-Aug-14 21:28N 34°32' E 135°20'0 0.0
2017-Aug-14 20:58N 34°32' E 135°20'0 0.0
2017-Aug-14 20:28N 34°32' E 135°20'0 0.0
2017-Aug-14 19:58N 34°32' E 135°20'0 0.0
2017-Aug-14 19:16N 34°32' E 135°20'2 7.5
2017-Aug-14 19:00N 34°33' E 135°17'611.3
2017-Aug-14 18:30N 34°34' E 135°11'612.1
2017-Aug-14 18:00N 34°35' E 135°04'  
2017-Aug-12 10:02N 34°50' E 139°09'013.8
2017-Aug-12 10:00N 34°50' E 139°09'1612.2
2017-Aug-12 08:40N 35°00' E 139°25'412.0
2017-Aug-12 08:19N 35°02' E 139°29'412.3
2017-Aug-12 08:00N 35°04' E 139°34'612.9
2017-Aug-12 07:30N 35°07' E 139°40'612.3
2017-Aug-12 07:00N 35°12' E 139°45'511.1
2017-Aug-12 06:30N 35°17' E 139°45'611.9
2017-Aug-12 06:00N 35°22' E 139°42'612.1
2017-Aug-12 05:30N 35°27' E 139°47'712.6
2017-Aug-12 04:59N 35°30' E 139°54'3 0.4
2017-Aug-11 22:29N 35°33' E 139°55'0 0.3
2017-Aug-11 21:52N 35°33' E 139°55'0 0.0
2017-Aug-11 21:25N 35°33' E 139°55'0 0.0
2017-Aug-11 20:58N 35°33' E 139°55'0 0.0
2017-Aug-11 20:25N 35°33' E 139°55'0 0.0
2017-Aug-11 19:55N 35°33' E 139°55'0 0.0
2017-Aug-11 19:28N 35°33' E 139°55'0 0.0
2017-Aug-11 18:40N 35°33' E 139°55'0 0.0
2017-Aug-11 18:22N 35°33' E 139°55'0 0.0
2017-Aug-11 17:58N 35°33' E 139°55'0 0.0
2017-Aug-11 17:28N 35°33' E 139°55'0 0.0
2017-Aug-11 16:58N 35°33' E 139°55'0 0.1
2017-Aug-11 16:25N 35°33' E 139°55'0 0.1
2017-Aug-11 15:58N 35°33' E 139°55'0 0.0
2017-Aug-11 15:28N 35°33' E 139°55'0 0.0
2017-Aug-11 05:11N 35°33' E 139°55'0 2.4
2017-Aug-11 05:00N 35°33' E 139°56'6 1.1
2017-Aug-10 23:36N 35°30' E 140°02'4 5.7
2017-Aug-10 22:57N 35°30' E 139°57'510.7
2017-Aug-10 22:31N 35°28' E 139°52'510.2
2017-Aug-10 22:00N 35°25' E 139°47'510.1
2017-Aug-10 21:30N 35°20' E 139°45'5 9.7
2017-Aug-10 21:01N 35°16' E 139°47'510.6
2017-Aug-10 20:30N 35°11' E 139°47'612.2
2017-Aug-10 20:00N 35°05' E 139°44'612.7
2017-Aug-10 19:30N 35°02' E 139°38'  

Dump ship's entire track history